sensor_id;sensor_type;location;lat;lon;timestamp;P1;P2;P0
45440;PMS5003;31189;38.790;-77.084;2023-07-13T00:01:18;26;19;
45440;PMS5003;31189;38.790;-77.084;2023-07-13T00:03:43;19;18;
45440;PMS5003;31189;38.790;-77.084;2023-07-13T00:06:09;17;17;
45440;PMS5003;31189;38.790;-77.084;2023-07-13T00:08:35;23;22;
45440;PMS5003;31189;38.790;-77.084;2023-07-13T00:11:00;24;20;
45440;PMS5003;31189;38.790;-77.084;2023-07-13T00:13:26;21;21;
45440;PMS5003;31189;38.790;-77.084;2023-07-13T00:15:51;20;20;
45440;PMS5003;31189;38.790;-77.084;2023-07-13T00:18:16;27;20;
45440;PMS5003;31189;38.790;-77.084;2023-07-13T00:20:42;19;19;
45440;PMS5003;31189;38.790;-77.084;2023-07-13T00:23:07;19;18;
45440;PMS5003;31189;38.790;-77.084;2023-07-13T00:25:33;21;20;
45440;PMS5003;31189;38.790;-77.084;2023-07-13T00:27:59;22;22;
45440;PMS5003;31189;38.790;-77.084;2023-07-13T00:30:24;20;19;
45440;PMS5003;31189;38.790;-77.084;2023-07-13T00:32:50;20;20;
45440;PMS5003;31189;38.790;-77.084;2023-07-13T00:35:16;21;19;
45440;PMS5003;31189;38.790;-77.084;2023-07-13T00:37:41;19;19;
45440;PMS5003;31189;38.790;-77.084;2023-07-13T00:40:07;22;21;
45440;PMS5003;31189;38.790;-77.084;2023-07-13T00:42:33;24;24;
45440;PMS5003;31189;38.790;-77.084;2023-07-13T00:45:01;21;21;
45440;PMS5003;31189;38.790;-77.084;2023-07-13T00:47:24;32;21;
45440;PMS5003;31189;38.790;-77.084;2023-07-13T00:49:49;22;19;
45440;PMS5003;31189;38.790;-77.084;2023-07-13T00:52:15;21;20;
45440;PMS5003;31189;38.790;-77.084;2023-07-13T00:54:41;25;23;
45440;PMS5003;31189;38.790;-77.084;2023-07-13T00:57:06;23;23;
45440;PMS5003;31189;38.790;-77.084;2023-07-13T00:59:31;26;26;
45440;PMS5003;31189;38.790;-77.084;2023-07-13T01:01:56;33;20;
45440;PMS5003;31189;38.790;-77.084;2023-07-13T01:04:23;32;23;
45440;PMS5003;31189;38.790;-77.084;2023-07-13T01:06:47;23;23;
45440;PMS5003;31189;38.790;-77.084;2023-07-13T01:09:13;30;24;
45440;PMS5003;31189;38.790;-77.084;2023-07-13T01:11:38;26;25;
45440;PMS5003;31189;38.790;-77.084;2023-07-13T01:14:03;21;20;
45440;PMS5003;31189;38.790;-77.084;2023-07-13T01:16:29;24;23;
45440;PMS5003;31189;38.790;-77.084;2023-07-13T01:18:54;25;24;
45440;PMS5003;31189;38.790;-77.084;2023-07-13T01:21:19;25;24;
45440;PMS5003;31189;38.790;-77.084;2023-07-13T01:23:45;33;21;
45440;PMS5003;31189;38.790;-77.084;2023-07-13T01:26:10;33;22;
45440;PMS5003;31189;38.790;-77.084;2023-07-13T01:28:36;23;22;
45440;PMS5003;31189;38.790;-77.084;2023-07-13T01:31:01;27;24;
45440;PMS5003;31189;38.790;-77.084;2023-07-13T01:33:26;23;22;
45440;PMS5003;31189;38.790;-77.084;2023-07-13T01:35:52;20;19;
45440;PMS5003;31189;38.790;-77.084;2023-07-13T01:38:19;25;24;
45440;PMS5003;31189;38.790;-77.084;2023-07-13T01:40:42;38;26;
45440;PMS5003;31189;38.790;-77.084;2023-07-13T01:43:08;26;24;
45440;PMS5003;31189;38.790;-77.084;2023-07-13T01:45:33;24;23;
45440;PMS5003;31189;38.790;-77.084;2023-07-13T01:47:59;26;25;
45440;PMS5003;31189;38.790;-77.084;2023-07-13T01:50:24;36;25;
45440;PMS5003;31189;38.790;-77.084;2023-07-13T01:52:50;26;24;
45440;PMS5003;31189;38.790;-77.084;2023-07-13T01:55:15;29;22;
45440;PMS5003;31189;38.790;-77.084;2023-07-13T01:57:41;25;22;
45440;PMS5003;31189;38.790;-77.084;2023-07-13T02:00:10;33;23;
45440;PMS5003;31189;38.790;-77.084;2023-07-13T02:02:32;37;26;
45440;PMS5003;31189;38.790;-77.084;2023-07-13T02:04:58;26;26;
45440;PMS5003;31189;38.790;-77.084;2023-07-13T02:07:23;35;25;
45440;PMS5003;31189;38.790;-77.084;2023-07-13T02:09:48;26;24;
45440;PMS5003;31189;38.790;-77.084;2023-07-13T02:12:13;25;23;
45440;PMS5003;31189;38.790;-77.084;2023-07-13T02:14:39;23;22;
45440;PMS5003;31189;38.790;-77.084;2023-07-13T02:17:04;24;23;
45440;PMS5003;31189;38.790;-77.084;2023-07-13T02:19:29;31;24;
45440;PMS5003;31189;38.790;-77.084;2023-07-13T02:21:54;34;22;
45440;PMS5003;31189;38.790;-77.084;2023-07-13T02:24:20;28;24;
45440;PMS5003;31189;38.790;-77.084;2023-07-13T02:26:45;39;27;
45440;PMS5003;31189;38.790;-77.084;2023-07-13T02:29:11;25;25;
45440;PMS5003;31189;38.790;-77.084;2023-07-13T02:31:36;26;25;
45440;PMS5003;31189;38.790;-77.084;2023-07-13T02:34:02;24;23;
45440;PMS5003;31189;38.790;-77.084;2023-07-13T02:36:27;25;23;
45440;PMS5003;31189;38.790;-77.084;2023-07-13T02:38:53;31;27;
45440;PMS5003;31189;38.790;-77.084;2023-07-13T02:41:18;24;22;
45440;PMS5003;31189;38.790;-77.084;2023-07-13T02:43:44;31;24;
45440;PMS5003;31189;38.790;-77.084;2023-07-13T02:46:09;39;23;
45440;PMS5003;31189;38.790;-77.084;2023-07-13T02:48:34;35;24;
45440;PMS5003;31189;38.790;-77.084;2023-07-13T02:50:59;26;24;
45440;PMS5003;31189;38.790;-77.084;2023-07-13T02:53:25;30;27;
45440;PMS5003;31189;38.790;-77.084;2023-07-13T02:55:50;29;26;
45440;PMS5003;31189;38.790;-77.084;2023-07-13T02:58:15;25;25;
45440;PMS5003;31189;38.790;-77.084;2023-07-13T03:00:40;27;26;
45440;PMS5003;31189;38.790;-77.084;2023-07-13T03:03:06;30;27;
45440;PMS5003;31189;38.790;-77.084;2023-07-13T03:05:32;24;23;
45440;PMS5003;31189;38.790;-77.084;2023-07-13T03:07:57;24;24;
45440;PMS5003;31189;38.790;-77.084;2023-07-13T03:10:22;27;25;
45440;PMS5003;31189;38.790;-77.084;2023-07-13T03:12:48;25;23;
45440;PMS5003;31189;38.790;-77.084;2023-07-13T03:15:14;26;26;
45440;PMS5003;31189;38.790;-77.084;2023-07-13T03:17:39;34;24;
45440;PMS5003;31189;38.790;-77.084;2023-07-13T03:20:05;24;24;
45440;PMS5003;31189;38.790;-77.084;2023-07-13T03:22:30;28;28;
45440;PMS5003;31189;38.790;-77.084;2023-07-13T03:24:55;28;26;
45440;PMS5003;31189;38.790;-77.084;2023-07-13T03:27:20;35;25;
45440;PMS5003;31189;38.790;-77.084;2023-07-13T03:29:46;26;24;
45440;PMS5003;31189;38.790;-77.084;2023-07-13T03:32:11;30;26;
45440;PMS5003;31189;38.790;-77.084;2023-07-13T03:34:36;29;23;
45440;PMS5003;31189;38.790;-77.084;2023-07-13T03:37:02;40;28;
45440;PMS5003;31189;38.790;-77.084;2023-07-13T03:39:27;26;25;
45440;PMS5003;31189;38.790;-77.084;2023-07-13T03:41:52;29;26;
45440;PMS5003;31189;38.790;-77.084;2023-07-13T03:44:17;31;25;
45440;PMS5003;31189;38.790;-77.084;2023-07-13T03:46:43;30;27;
45440;PMS5003;31189;38.790;-77.084;2023-07-13T03:49:08;28;26;
45440;PMS5003;31189;38.790;-77.084;2023-07-13T03:51:33;23;23;
45440;PMS5003;31189;38.790;-77.084;2023-07-13T03:53:59;34;24;
45440;PMS5003;31189;38.790;-77.084;2023-07-13T03:56:25;33;27;
45440;PMS5003;31189;38.790;-77.084;2023-07-13T03:58:50;40;26;
45440;PMS5003;31189;38.790;-77.084;2023-07-13T04:01:16;36;28;
45440;PMS5003;31189;38.790;-77.084;2023-07-13T04:03:40;27;26;
45440;PMS5003;31189;38.790;-77.084;2023-07-13T04:06:11;26;22;
45440;PMS5003;31189;38.790;-77.084;2023-07-13T04:08:31;27;26;
45440;PMS5003;31189;38.790;-77.084;2023-07-13T04:10:56;26;23;
45440;PMS5003;31189;38.790;-77.084;2023-07-13T04:13:22;26;25;
45440;PMS5003;31189;38.790;-77.084;2023-07-13T04:15:48;29;28;
45440;PMS5003;31189;38.790;-77.084;2023-07-13T04:18:12;25;25;
45440;PMS5003;31189;38.790;-77.084;2023-07-13T04:20:38;23;23;
45440;PMS5003;31189;38.790;-77.084;2023-07-13T04:23:03;28;28;
45440;PMS5003;31189;38.790;-77.084;2023-07-13T04:25:28;23;23;
45440;PMS5003;31189;38.790;-77.084;2023-07-13T04:27:54;24;23;
45440;PMS5003;31189;38.790;-77.084;2023-07-13T04:30:20;27;24;
45440;PMS5003;31189;38.790;-77.084;2023-07-13T04:32:45;26;26;
45440;PMS5003;31189;38.790;-77.084;2023-07-13T04:35:11;29;27;
45440;PMS5003;31189;38.790;-77.084;2023-07-13T04:37:36;26;25;
45440;PMS5003;31189;38.790;-77.084;2023-07-13T04:40:02;29;25;
45440;PMS5003;31189;38.790;-77.084;2023-07-13T04:42:28;36;24;
45440;PMS5003;31189;38.790;-77.084;2023-07-13T04:44:53;26;24;
45440;PMS5003;31189;38.790;-77.084;2023-07-13T04:47:19;23;22;
45440;PMS5003;31189;38.790;-77.084;2023-07-13T04:49:44;31;26;
45440;PMS5003;31189;38.790;-77.084;2023-07-13T04:52:09;30;25;
45440;PMS5003;31189;38.790;-77.084;2023-07-13T04:54:34;26;24;
45440;PMS5003;31189;38.790;-77.084;2023-07-13T04:57:00;25;25;
45440;PMS5003;31189;38.790;-77.084;2023-07-13T04:59:25;28;23;
45440;PMS5003;31189;38.790;-77.084;2023-07-13T05:01:50;21;20;
45440;PMS5003;31189;38.790;-77.084;2023-07-13T05:04:15;34;24;
45440;PMS5003;31189;38.790;-77.084;2023-07-13T05:06:41;22;22;
45440;PMS5003;31189;38.790;-77.084;2023-07-13T05:09:07;21;21;
45440;PMS5003;31189;38.790;-77.084;2023-07-13T05:11:32;24;23;
45440;PMS5003;31189;38.790;-77.084;2023-07-13T05:13:57;22;21;
45440;PMS5003;31189;38.790;-77.084;2023-07-13T05:16:22;23;21;
45440;PMS5003;31189;38.790;-77.084;2023-07-13T05:18:47;24;23;
45440;PMS5003;31189;38.790;-77.084;2023-07-13T05:21:13;26;23;
45440;PMS5003;31189;38.790;-77.084;2023-07-13T05:23:39;23;23;
45440;PMS5003;31189;38.790;-77.084;2023-07-13T05:26:04;30;23;
45440;PMS5003;31189;38.790;-77.084;2023-07-13T05:28:30;23;22;
45440;PMS5003;31189;38.790;-77.084;2023-07-13T05:30:55;28;26;
45440;PMS5003;31189;38.790;-77.084;2023-07-13T05:33:21;24;23;
45440;PMS5003;31189;38.790;-77.084;2023-07-13T05:35:46;26;23;
45440;PMS5003;31189;38.790;-77.084;2023-07-13T05:38:12;20;20;
45440;PMS5003;31189;38.790;-77.084;2023-07-13T05:40:37;22;22;
45440;PMS5003;31189;38.790;-77.084;2023-07-13T05:43:02;24;24;
45440;PMS5003;31189;38.790;-77.084;2023-07-13T05:45:28;24;21;
45440;PMS5003;31189;38.790;-77.084;2023-07-13T05:47:54;28;21;
45440;PMS5003;31189;38.790;-77.084;2023-07-13T05:50:19;26;24;
45440;PMS5003;31189;38.790;-77.084;2023-07-13T05:52:45;25;24;
45440;PMS5003;31189;38.790;-77.084;2023-07-13T05:55:10;30;26;
45440;PMS5003;31189;38.790;-77.084;2023-07-13T05:57:35;26;22;
45440;PMS5003;31189;38.790;-77.084;2023-07-13T06:00:01;28;26;
45440;PMS5003;31189;38.790;-77.084;2023-07-13T06:02:27;35;24;
45440;PMS5003;31189;38.790;-77.084;2023-07-13T06:04:52;26;25;
45440;PMS5003;31189;38.790;-77.084;2023-07-13T06:07:18;27;22;
45440;PMS5003;31189;38.790;-77.084;2023-07-13T06:09:43;24;24;
45440;PMS5003;31189;38.790;-77.084;2023-07-13T06:12:09;31;21;
45440;PMS5003;31189;38.790;-77.084;2023-07-13T06:14:34;26;24;
45440;PMS5003;31189;38.790;-77.084;2023-07-13T06:17:00;26;21;
45440;PMS5003;31189;38.790;-77.084;2023-07-13T06:19:25;23;22;
45440;PMS5003;31189;38.790;-77.084;2023-07-13T06:21:51;26;26;
45440;PMS5003;31189;38.790;-77.084;2023-07-13T06:24:16;23;22;
45440;PMS5003;31189;38.790;-77.084;2023-07-13T06:26:41;25;24;
45440;PMS5003;31189;38.790;-77.084;2023-07-13T06:29:07;23;20;
45440;PMS5003;31189;38.790;-77.084;2023-07-13T06:31:32;24;23;
45440;PMS5003;31189;38.790;-77.084;2023-07-13T06:33:58;24;23;
45440;PMS5003;31189;38.790;-77.084;2023-07-13T06:36:23;24;24;
45440;PMS5003;31189;38.790;-77.084;2023-07-13T06:38:48;32;25;
45440;PMS5003;31189;38.790;-77.084;2023-07-13T06:41:14;26;23;
45440;PMS5003;31189;38.790;-77.084;2023-07-13T06:43:39;24;23;
45440;PMS5003;31189;38.790;-77.084;2023-07-13T06:46:04;35;23;
45440;PMS5003;31189;38.790;-77.084;2023-07-13T06:48:30;29;23;
45440;PMS5003;31189;38.790;-77.084;2023-07-13T06:50:55;25;24;
45440;PMS5003;31189;38.790;-77.084;2023-07-13T06:53:21;37;27;
45440;PMS5003;31189;38.790;-77.084;2023-07-13T06:55:47;36;24;
45440;PMS5003;31189;38.790;-77.084;2023-07-13T06:58:12;23;22;
45440;PMS5003;31189;38.790;-77.084;2023-07-13T07:00:38;25;22;
45440;PMS5003;31189;38.790;-77.084;2023-07-13T07:03:03;25;25;
45440;PMS5003;31189;38.790;-77.084;2023-07-13T07:05:29;31;24;
45440;PMS5003;31189;38.790;-77.084;2023-07-13T07:07:54;24;23;
45440;PMS5003;31189;38.790;-77.084;2023-07-13T07:10:19;27;25;
45440;PMS5003;31189;38.790;-77.084;2023-07-13T07:12:44;21;21;
45440;PMS5003;31189;38.790;-77.084;2023-07-13T07:15:10;25;23;
45440;PMS5003;31189;38.790;-77.084;2023-07-13T07:17:35;26;25;
45440;PMS5003;31189;38.790;-77.084;2023-07-13T07:20:01;24;24;
45440;PMS5003;31189;38.790;-77.084;2023-07-13T07:22:26;29;23;
45440;PMS5003;31189;38.790;-77.084;2023-07-13T07:24:51;26;24;
45440;PMS5003;31189;38.790;-77.084;2023-07-13T07:27:17;24;24;
45440;PMS5003;31189;38.790;-77.084;2023-07-13T07:29:43;27;25;
45440;PMS5003;31189;38.790;-77.084;2023-07-13T07:32:08;25;25;
45440;PMS5003;31189;38.790;-77.084;2023-07-13T07:34:33;27;25;
45440;PMS5003;31189;38.790;-77.084;2023-07-13T07:37:00;27;23;
45440;PMS5003;31189;38.790;-77.084;2023-07-13T07:39:24;22;22;
45440;PMS5003;31189;38.790;-77.084;2023-07-13T07:41:49;28;24;
45440;PMS5003;31189;38.790;-77.084;2023-07-13T07:44:14;28;28;
45440;PMS5003;31189;38.790;-77.084;2023-07-13T07:46:40;37;25;
45440;PMS5003;31189;38.790;-77.084;2023-07-13T07:49:06;25;24;
45440;PMS5003;31189;38.790;-77.084;2023-07-13T07:51:31;27;27;
45440;PMS5003;31189;38.790;-77.084;2023-07-13T07:53:57;25;25;
45440;PMS5003;31189;38.790;-77.084;2023-07-13T07:56:22;27;24;
45440;PMS5003;31189;38.790;-77.084;2023-07-13T07:58:48;33;27;
45440;PMS5003;31189;38.790;-77.084;2023-07-13T08:01:13;25;25;
45440;PMS5003;31189;38.790;-77.084;2023-07-13T08:03:39;27;24;
45440;PMS5003;31189;38.790;-77.084;2023-07-13T08:06:04;25;25;
45440;PMS5003;31189;38.790;-77.084;2023-07-13T08:08:29;37;26;
45440;PMS5003;31189;38.790;-77.084;2023-07-13T08:10:55;29;26;
45440;PMS5003;31189;38.790;-77.084;2023-07-13T08:13:20;36;27;
45440;PMS5003;31189;38.790;-77.084;2023-07-13T08:15:46;22;22;
45440;PMS5003;31189;38.790;-77.084;2023-07-13T08:18:11;25;25;
45440;PMS5003;31189;38.790;-77.084;2023-07-13T08:20:37;36;29;
45440;PMS5003;31189;38.790;-77.084;2023-07-13T08:23:02;28;25;
45440;PMS5003;31189;38.790;-77.084;2023-07-13T08:25:27;32;25;
45440;PMS5003;31189;38.790;-77.084;2023-07-13T08:27:52;32;26;
45440;PMS5003;31189;38.790;-77.084;2023-07-13T08:30:18;25;23;
45440;PMS5003;31189;38.790;-77.084;2023-07-13T08:32:43;35;23;
45440;PMS5003;31189;38.790;-77.084;2023-07-13T08:35:08;37;27;
45440;PMS5003;31189;38.790;-77.084;2023-07-13T08:37:34;28;25;
45440;PMS5003;31189;38.790;-77.084;2023-07-13T08:39:59;30;27;
45440;PMS5003;31189;38.790;-77.084;2023-07-13T08:42:29;24;24;
45440;PMS5003;31189;38.790;-77.084;2023-07-13T08:44:54;30;24;
45440;PMS5003;31189;38.790;-77.084;2023-07-13T08:47:16;30;25;
45440;PMS5003;31189;38.790;-77.084;2023-07-13T08:49:41;25;25;
45440;PMS5003;31189;38.790;-77.084;2023-07-13T08:52:08;25;25;
45440;PMS5003;31189;38.790;-77.084;2023-07-13T08:54:34;28;26;
45440;PMS5003;31189;38.790;-77.084;2023-07-13T08:56:58;28;27;
45440;PMS5003;31189;38.790;-77.084;2023-07-13T08:59:25;32;29;
45440;PMS5003;31189;38.790;-77.084;2023-07-13T09:01:56;23;23;
45440;PMS5003;31189;38.790;-77.084;2023-07-13T09:04:14;25;25;
45440;PMS5003;31189;38.790;-77.084;2023-07-13T09:06:42;29;27;
45440;PMS5003;31189;38.790;-77.084;2023-07-13T09:09:05;39;29;
45440;PMS5003;31189;38.790;-77.084;2023-07-13T09:11:35;27;25;
45440;PMS5003;31189;38.790;-77.084;2023-07-13T09:13:56;30;26;
45440;PMS5003;31189;38.790;-77.084;2023-07-13T09:16:20;26;26;
45440;PMS5003;31189;38.790;-77.084;2023-07-13T09:18:46;27;26;
45440;PMS5003;31189;38.790;-77.084;2023-07-13T09:21:12;31;29;
45440;PMS5003;31189;38.790;-77.084;2023-07-13T09:23:37;32;25;
45440;PMS5003;31189;38.790;-77.084;2023-07-13T09:26:04;34;29;
45440;PMS5003;31189;38.790;-77.084;2023-07-13T09:28:28;36;27;
45440;PMS5003;31189;38.790;-77.084;2023-07-13T09:30:54;26;26;
45440;PMS5003;31189;38.790;-77.084;2023-07-13T09:33:19;31;26;
45440;PMS5003;31189;38.790;-77.084;2023-07-13T09:35:44;24;24;
45440;PMS5003;31189;38.790;-77.084;2023-07-13T09:38:12;27;26;
45440;PMS5003;31189;38.790;-77.084;2023-07-13T09:40:38;27;25;
45440;PMS5003;31189;38.790;-77.084;2023-07-13T09:43:00;27;26;
45440;PMS5003;31189;38.790;-77.084;2023-07-13T09:45:28;36;25;
45440;PMS5003;31189;38.790;-77.084;2023-07-13T09:47:53;30;28;
45440;PMS5003;31189;38.790;-77.084;2023-07-13T09:50:16;28;27;
45440;PMS5003;31189;38.790;-77.084;2023-07-13T09:52:43;29;28;
45440;PMS5003;31189;38.790;-77.084;2023-07-13T09:57:32;27;27;
45440;PMS5003;31189;38.790;-77.084;2023-07-13T09:59:58;26;26;
45440;PMS5003;31189;38.790;-77.084;2023-07-13T10:02:24;29;24;
45440;PMS5003;31189;38.790;-77.084;2023-07-13T10:04:51;28;26;
45440;PMS5003;31189;38.790;-77.084;2023-07-13T10:07:14;33;26;
45440;PMS5003;31189;38.790;-77.084;2023-07-13T10:09:39;26;25;
45440;PMS5003;31189;38.790;-77.084;2023-07-13T10:12:05;28;26;
45440;PMS5003;31189;38.790;-77.084;2023-07-13T10:14:30;32;23;
45440;PMS5003;31189;38.790;-77.084;2023-07-13T10:16:58;34;28;
45440;PMS5003;31189;38.790;-77.084;2023-07-13T10:19:22;37;24;
45440;PMS5003;31189;38.790;-77.084;2023-07-13T10:21:50;41;26;
45440;PMS5003;31189;38.790;-77.084;2023-07-13T10:24:14;34;27;
45440;PMS5003;31189;38.790;-77.084;2023-07-13T10:26:38;30;26;
45440;PMS5003;31189;38.790;-77.084;2023-07-13T10:29:04;30;28;
45440;PMS5003;31189;38.790;-77.084;2023-07-13T10:31:29;31;26;
45440;PMS5003;31189;38.790;-77.084;2023-07-13T10:33:54;39;28;
45440;PMS5003;31189;38.790;-77.084;2023-07-13T10:36:22;35;27;
45440;PMS5003;31189;38.790;-77.084;2023-07-13T10:38:45;38;27;
45440;PMS5003;31189;38.790;-77.084;2023-07-13T10:41:11;36;26;
45440;PMS5003;31189;38.790;-77.084;2023-07-13T10:43:37;44;32;
45440;PMS5003;31189;38.790;-77.084;2023-07-13T10:46:01;30;29;
45440;PMS5003;31189;38.790;-77.084;2023-07-13T10:48:26;40;32;
45440;PMS5003;31189;38.790;-77.084;2023-07-13T10:50:52;29;28;
45440;PMS5003;31189;38.790;-77.084;2023-07-13T10:53:18;37;35;
45440;PMS5003;31189;38.790;-77.084;2023-07-13T10:55:54;32;31;
45440;PMS5003;31189;38.790;-77.084;2023-07-13T10:58:12;36;31;
45440;PMS5003;31189;38.790;-77.084;2023-07-13T11:00:33;36;30;
45440;PMS5003;31189;38.790;-77.084;2023-07-13T11:02:59;33;31;
45440;PMS5003;31189;38.790;-77.084;2023-07-13T11:05:26;35;30;
45440;PMS5003;31189;38.790;-77.084;2023-07-13T11:07:52;37;34;
45440;PMS5003;31189;38.790;-77.084;2023-07-13T11:10:45;36;34;
45440;PMS5003;31189;38.790;-77.084;2023-07-13T11:12:49;36;34;
45440;PMS5003;31189;38.790;-77.084;2023-07-13T11:15:10;37;35;
45440;PMS5003;31189;38.790;-77.084;2023-07-13T11:17:34;40;34;
45440;PMS5003;31189;38.790;-77.084;2023-07-13T11:20:07;33;32;
45440;PMS5003;31189;38.790;-77.084;2023-07-13T11:22:24;42;36;
45440;PMS5003;31189;38.790;-77.084;2023-07-13T11:24:51;37;34;
45440;PMS5003;31189;38.790;-77.084;2023-07-13T11:29:39;37;31;
45440;PMS5003;31189;38.790;-77.084;2023-07-13T11:34:31;41;31;
45440;PMS5003;31189;38.790;-77.084;2023-07-13T11:36:56;34;29;
45440;PMS5003;31189;38.790;-77.084;2023-07-13T11:39:22;34;30;
45440;PMS5003;31189;38.790;-77.084;2023-07-13T11:41:49;32;31;
45440;PMS5003;31189;38.790;-77.084;2023-07-13T11:44:13;39;37;
45440;PMS5003;31189;38.790;-77.084;2023-07-13T11:46:37;42;30;
45440;PMS5003;31189;38.790;-77.084;2023-07-13T11:49:04;36;33;
45440;PMS5003;31189;38.790;-77.084;2023-07-13T11:51:29;33;29;
45440;PMS5003;31189;38.790;-77.084;2023-07-13T11:53:53;38;32;
45440;PMS5003;31189;38.790;-77.084;2023-07-13T11:56:18;36;35;
45440;PMS5003;31189;38.790;-77.084;2023-07-13T11:58:44;30;30;
45440;PMS5003;31189;38.790;-77.084;2023-07-13T12:01:14;41;31;
45440;PMS5003;31189;38.790;-77.084;2023-07-13T12:03:39;39;37;
45440;PMS5003;31189;38.790;-77.084;2023-07-13T12:06:00;42;32;
45440;PMS5003;31189;38.790;-77.084;2023-07-13T12:08:25;38;36;
45440;PMS5003;31189;38.790;-77.084;2023-07-13T12:13:16;45;33;
45440;PMS5003;31189;38.790;-77.084;2023-07-13T12:15:43;44;37;
45440;PMS5003;31189;38.790;-77.084;2023-07-13T12:18:11;33;31;
45440;PMS5003;31189;38.790;-77.084;2023-07-13T12:20:35;47;34;
45440;PMS5003;31189;38.790;-77.084;2023-07-13T12:22:57;42;31;
45440;PMS5003;31189;38.790;-77.084;2023-07-13T12:25:23;43;34;
45440;PMS5003;31189;38.790;-77.084;2023-07-13T12:27:49;38;36;
45440;PMS5003;31189;38.790;-77.084;2023-07-13T12:32:39;52;36;
45440;PMS5003;31189;38.790;-77.084;2023-07-13T12:35:13;39;34;
45440;PMS5003;31189;38.790;-77.084;2023-07-13T12:37:29;39;35;
45440;PMS5003;31189;38.790;-77.084;2023-07-13T12:40:00;36;35;
45440;PMS5003;31189;38.790;-77.084;2023-07-13T12:42:21;41;32;
45440;PMS5003;31189;38.790;-77.084;2023-07-13T12:44:46;43;36;
45440;PMS5003;31189;38.790;-77.084;2023-07-13T12:47:12;47;36;
45440;PMS5003;31189;38.790;-77.084;2023-07-13T12:49:40;37;36;
45440;PMS5003;31189;38.790;-77.084;2023-07-13T12:52:03;47;33;
45440;PMS5003;31189;38.790;-77.084;2023-07-13T12:54:28;46;36;
45440;PMS5003;31189;38.790;-77.084;2023-07-13T12:56:53;32;30;
45440;PMS5003;31189;38.790;-77.084;2023-07-13T12:59:19;45;33;
45440;PMS5003;31189;38.790;-77.084;2023-07-13T13:01:43;35;33;
45440;PMS5003;31189;38.790;-77.084;2023-07-13T13:04:15;40;34;
45440;PMS5003;31189;38.790;-77.084;2023-07-13T13:06:35;36;29;
45440;PMS5003;31189;38.790;-77.084;2023-07-13T13:09:00;32;30;
45440;PMS5003;31189;38.790;-77.084;2023-07-13T13:11:26;39;31;
45440;PMS5003;31189;38.790;-77.084;2023-07-13T13:13:51;36;33;
45440;PMS5003;31189;38.790;-77.084;2023-07-13T13:16:20;41;37;
45440;PMS5003;31189;38.790;-77.084;2023-07-13T13:18:41;37;32;
45440;PMS5003;31189;38.790;-77.084;2023-07-13T13:21:07;37;36;
45440;PMS5003;31189;38.790;-77.084;2023-07-13T13:23:33;41;29;
45440;PMS5003;31189;38.790;-77.084;2023-07-13T13:25:58;36;28;
45440;PMS5003;31189;38.790;-77.084;2023-07-13T13:28:23;32;30;
45440;PMS5003;31189;38.790;-77.084;2023-07-13T13:30:49;32;31;
45440;PMS5003;31189;38.790;-77.084;2023-07-13T13:33:15;33;31;
45440;PMS5003;31189;38.790;-77.084;2023-07-13T13:35:40;37;28;
45440;PMS5003;31189;38.790;-77.084;2023-07-13T13:38:07;32;32;
45440;PMS5003;31189;38.790;-77.084;2023-07-13T13:40:30;39;28;
45440;PMS5003;31189;38.790;-77.084;2023-07-13T13:42:55;27;26;
45440;PMS5003;31189;38.790;-77.084;2023-07-13T13:45:20;31;30;
45440;PMS5003;31189;38.790;-77.084;2023-07-13T13:47:46;30;27;
45440;PMS5003;31189;38.790;-77.084;2023-07-13T13:50:12;34;30;
45440;PMS5003;31189;38.790;-77.084;2023-07-13T13:52:37;28;27;
45440;PMS5003;31189;38.790;-77.084;2023-07-13T13:55:04;28;26;
45440;PMS5003;31189;38.790;-77.084;2023-07-13T13:57:27;40;31;
45440;PMS5003;31189;38.790;-77.084;2023-07-13T13:59:52;29;27;
45440;PMS5003;31189;38.790;-77.084;2023-07-13T14:02:21;30;29;
45440;PMS5003;31189;38.790;-77.084;2023-07-13T14:04:43;43;30;
45440;PMS5003;31189;38.790;-77.084;2023-07-13T14:07:08;29;29;
45440;PMS5003;31189;38.790;-77.084;2023-07-13T14:09:33;28;28;
45440;PMS5003;31189;38.790;-77.084;2023-07-13T14:11:58;45;32;
45440;PMS5003;31189;38.790;-77.084;2023-07-13T14:14:24;35;26;
45440;PMS5003;31189;38.790;-77.084;2023-07-13T14:16:49;31;29;
45440;PMS5003;31189;38.790;-77.084;2023-07-13T14:19:15;30;29;
45440;PMS5003;31189;38.790;-77.084;2023-07-13T14:21:41;40;30;
45440;PMS5003;31189;38.790;-77.084;2023-07-13T14:24:06;36;32;
45440;PMS5003;31189;38.790;-77.084;2023-07-13T14:26:32;29;26;
45440;PMS5003;31189;38.790;-77.084;2023-07-13T14:28:57;41;32;
45440;PMS5003;31189;38.790;-77.084;2023-07-13T14:31:23;39;34;
45440;PMS5003;31189;38.790;-77.084;2023-07-13T14:33:48;31;30;
45440;PMS5003;31189;38.790;-77.084;2023-07-13T14:36:20;34;31;
45440;PMS5003;31189;38.790;-77.084;2023-07-13T14:38:39;34;32;
45440;PMS5003;31189;38.790;-77.084;2023-07-13T14:41:04;37;30;
45440;PMS5003;31189;38.790;-77.084;2023-07-13T14:43:29;31;30;
45440;PMS5003;31189;38.790;-77.084;2023-07-13T14:45:55;35;31;
45440;PMS5003;31189;38.790;-77.084;2023-07-13T14:48:21;36;28;
45440;PMS5003;31189;38.790;-77.084;2023-07-13T14:50:45;29;29;
45440;PMS5003;31189;38.790;-77.084;2023-07-13T14:53:11;36;27;
45440;PMS5003;31189;38.790;-77.084;2023-07-13T14:55:36;30;27;
45440;PMS5003;31189;38.790;-77.084;2023-07-13T14:58:01;27;27;
45440;PMS5003;31189;38.790;-77.084;2023-07-13T15:00:27;26;23;
45440;PMS5003;31189;38.790;-77.084;2023-07-13T15:02:53;27;25;
45440;PMS5003;31189;38.790;-77.084;2023-07-13T15:05:19;31;29;
45440;PMS5003;31189;38.790;-77.084;2023-07-13T15:07:43;26;26;
45440;PMS5003;31189;38.790;-77.084;2023-07-13T15:10:12;34;27;
45440;PMS5003;31189;38.790;-77.084;2023-07-13T15:12:34;25;25;
45440;PMS5003;31189;38.790;-77.084;2023-07-13T15:15:00;27;27;
45440;PMS5003;31189;38.790;-77.084;2023-07-13T15:17:27;29;28;
45440;PMS5003;31189;38.790;-77.084;2023-07-13T15:19:50;29;26;
45440;PMS5003;31189;38.790;-77.084;2023-07-13T15:22:16;24;24;
45440;PMS5003;31189;38.790;-77.084;2023-07-13T15:24:41;31;24;
45440;PMS5003;31189;38.790;-77.084;2023-07-13T15:27:09;27;24;
45440;PMS5003;31189;38.790;-77.084;2023-07-13T15:29:32;33;26;
45440;PMS5003;31189;38.790;-77.084;2023-07-13T15:31:58;33;27;
45440;PMS5003;31189;38.790;-77.084;2023-07-13T15:34:24;32;29;
45440;PMS5003;31189;38.790;-77.084;2023-07-13T15:36:49;24;23;
45440;PMS5003;31189;38.790;-77.084;2023-07-13T15:39:15;26;25;
45440;PMS5003;31189;38.790;-77.084;2023-07-13T15:41:40;23;23;
45440;PMS5003;31189;38.790;-77.084;2023-07-13T15:46:30;23;22;
45440;PMS5003;31189;38.790;-77.084;2023-07-13T15:48:57;24;22;